sensor_id;sensor_type;location;lat;lon;timestamp;P1;durP1;ratioP1;P2;durP2;ratioP2
26014;SDS011;13793;55.388;37.844;2023-03-31T00:02:09;17.20;;;11.60;;
26014;SDS011;13793;55.388;37.844;2023-03-31T00:04:41;15.60;;;11.60;;
26014;SDS011;13793;55.388;37.844;2023-03-31T00:07:21;16.70;;;11.10;;
26014;SDS011;13793;55.388;37.844;2023-03-31T00:09:52;16.50;;;11.87;;
26014;SDS011;13793;55.388;37.844;2023-03-31T00:12:24;17.07;;;12.17;;
26014;SDS011;13793;55.388;37.844;2023-03-31T00:14:54;19.17;;;12.90;;
26014;SDS011;13793;55.388;37.844;2023-03-31T00:17:25;19.70;;;12.60;;
26014;SDS011;13793;55.388;37.844;2023-03-31T00:19:55;16.20;;;12.37;;
26014;SDS011;13793;55.388;37.844;2023-03-31T00:22:27;15.47;;;11.93;;
26014;SDS011;13793;55.388;37.844;2023-03-31T00:24:58;17.77;;;12.97;;
26014;SDS011;13793;55.388;37.844;2023-03-31T00:27:29;16.83;;;11.97;;
26014;SDS011;13793;55.388;37.844;2023-03-31T00:29:59;18.83;;;13.37;;
26014;SDS011;13793;55.388;37.844;2023-03-31T00:32:30;18.07;;;13.27;;
26014;SDS011;13793;55.388;37.844;2023-03-31T00:35:01;19.47;;;14.00;;
26014;SDS011;13793;55.388;37.844;2023-03-31T00:37:31;20.07;;;13.57;;
26014;SDS011;13793;55.388;37.844;2023-03-31T00:40:02;19.83;;;13.90;;
26014;SDS011;13793;55.388;37.844;2023-03-31T00:42:40;21.27;;;14.23;;
26014;SDS011;13793;55.388;37.844;2023-03-31T00:50:49;20.73;;;14.70;;
26014;SDS011;13793;55.388;37.844;2023-03-31T00:53:22;21.30;;;14.03;;
26014;SDS011;13793;55.388;37.844;2023-03-31T00:55:55;21.30;;;15.40;;
26014;SDS011;13793;55.388;37.844;2023-03-31T00:58:28;22.70;;;15.57;;
26014;SDS011;13793;55.388;37.844;2023-03-31T01:01:01;21.57;;;14.87;;
26014;SDS011;13793;55.388;37.844;2023-03-31T01:03:32;23.47;;;15.57;;
26014;SDS011;13793;55.388;37.844;2023-03-31T01:06:03;22.30;;;14.70;;
26014;SDS011;13793;55.388;37.844;2023-03-31T01:08:36;23.20;;;16.67;;
26014;SDS011;13793;55.388;37.844;2023-03-31T01:11:08;21.53;;;15.50;;
26014;SDS011;13793;55.388;37.844;2023-03-31T01:13:42;21.40;;;14.80;;
26014;SDS011;13793;55.388;37.844;2023-03-31T01:16:13;22.17;;;15.73;;
26014;SDS011;13793;55.388;37.844;2023-03-31T01:18:44;25.07;;;16.37;;
26014;SDS011;13793;55.388;37.844;2023-03-31T01:21:40;23.63;;;16.60;;
26014;SDS011;13793;55.388;37.844;2023-03-31T01:27:05;23.77;;;15.57;;
26014;SDS011;13793;55.388;37.844;2023-03-31T01:40:43;23.20;;;16.33;;
26014;SDS011;13793;55.388;37.844;2023-03-31T01:49:04;21.90;;;15.77;;
26014;SDS011;13793;55.388;37.844;2023-03-31T01:51:59;20.40;;;15.13;;
26014;SDS011;13793;55.388;37.844;2023-03-31T01:54:31;20.83;;;15.20;;
26014;SDS011;13793;55.388;37.844;2023-03-31T01:57:33;20.13;;;14.43;;
26014;SDS011;13793;55.388;37.844;2023-03-31T02:00:18;19.97;;;14.43;;
26014;SDS011;13793;55.388;37.844;2023-03-31T02:03:04;20.47;;;14.10;;
26014;SDS011;13793;55.388;37.844;2023-03-31T02:05:43;19.37;;;13.62;;
26014;SDS011;13793;55.388;37.844;2023-03-31T02:08:15;19.10;;;13.93;;
26014;SDS011;13793;55.388;37.844;2023-03-31T02:10:48;17.48;;;13.28;;
26014;SDS011;13793;55.388;37.844;2023-03-31T02:13:20;19.73;;;13.67;;
26014;SDS011;13793;55.388;37.844;2023-03-31T02:15:53;18.33;;;13.67;;
26014;SDS011;13793;55.388;37.844;2023-03-31T02:18:25;18.60;;;13.47;;
26014;SDS011;13793;55.388;37.844;2023-03-31T02:20:58;18.93;;;13.27;;
26014;SDS011;13793;55.388;37.844;2023-03-31T02:23:29;16.83;;;12.77;;
26014;SDS011;13793;55.388;37.844;2023-03-31T02:26:02;17.90;;;13.60;;
26014;SDS011;13793;55.388;37.844;2023-03-31T02:28:45;18.63;;;13.50;;
26014;SDS011;13793;55.388;37.844;2023-03-31T02:34:07;18.00;;;10.80;;
26014;SDS011;13793;55.388;37.844;2023-03-31T02:36:37;14.87;;;10.87;;
26014;SDS011;13793;55.388;37.844;2023-03-31T02:39:20;16.43;;;11.23;;
26014;SDS011;13793;55.388;37.844;2023-03-31T02:41:54;17.40;;;10.90;;
26014;SDS011;13793;55.388;37.844;2023-03-31T02:44:25;17.77;;;10.97;;
26014;SDS011;13793;55.388;37.844;2023-03-31T02:46:56;13.83;;;10.43;;
26014;SDS011;13793;55.388;37.844;2023-03-31T02:49:26;15.47;;;10.97;;
26014;SDS011;13793;55.388;37.844;2023-03-31T02:52:04;16.37;;;10.93;;
26014;SDS011;13793;55.388;37.844;2023-03-31T02:57:43;16.87;;;10.83;;
26014;SDS011;13793;55.388;37.844;2023-03-31T03:06:24;13.87;;;10.53;;
26014;SDS011;13793;55.388;37.844;2023-03-31T03:09:06;17.20;;;11.20;;
26014;SDS011;13793;55.388;37.844;2023-03-31T03:14:26;16.63;;;11.07;;
26014;SDS011;13793;55.388;37.844;2023-03-31T03:17:06;17.63;;;11.97;;
26014;SDS011;13793;55.388;37.844;2023-03-31T03:19:58;14.17;;;11.37;;
26014;SDS011;13793;55.388;37.844;2023-03-31T03:22:23;15.70;;;12.40;;
26014;SDS011;13793;55.388;37.844;2023-03-31T03:24:53;15.93;;;11.73;;
26014;SDS011;13793;55.388;37.844;2023-03-31T03:27:24;16.83;;;12.03;;
26014;SDS011;13793;55.388;37.844;2023-03-31T03:29:54;18.10;;;12.40;;
26014;SDS011;13793;55.388;37.844;2023-03-31T03:32:25;18.63;;;13.30;;
26014;SDS011;13793;55.388;37.844;2023-03-31T03:34:55;19.03;;;13.20;;
26014;SDS011;13793;55.388;37.844;2023-03-31T03:37:26;18.67;;;12.70;;
26014;SDS011;13793;55.388;37.844;2023-03-31T03:39:56;17.47;;;12.57;;
26014;SDS011;13793;55.388;37.844;2023-03-31T03:42:29;17.17;;;12.33;;
26014;SDS011;13793;55.388;37.844;2023-03-31T03:44:59;17.93;;;12.47;;
26014;SDS011;13793;55.388;37.844;2023-03-31T03:47:30;16.63;;;12.13;;
26014;SDS011;13793;55.388;37.844;2023-03-31T03:50:01;17.07;;;12.40;;
26014;SDS011;13793;55.388;37.844;2023-03-31T03:52:32;18.30;;;13.53;;
26014;SDS011;13793;55.388;37.844;2023-03-31T03:55:03;17.73;;;12.30;;
26014;SDS011;13793;55.388;37.844;2023-03-31T03:57:34;15.17;;;10.93;;
26014;SDS011;13793;55.388;37.844;2023-03-31T04:00:05;15.97;;;11.70;;
26014;SDS011;13793;55.388;37.844;2023-03-31T04:02:38;15.27;;;10.63;;
26014;SDS011;13793;55.388;37.844;2023-03-31T04:05:09;16.00;;;11.03;;
26014;SDS011;13793;55.388;37.844;2023-03-31T04:07:40;13.37;;;11.00;;
26014;SDS011;13793;55.388;37.844;2023-03-31T04:10:10;15.10;;;10.13;;
26014;SDS011;13793;55.388;37.844;2023-03-31T04:12:41;12.97;;;9.87;;
26014;SDS011;13793;55.388;37.844;2023-03-31T04:15:12;13.43;;;10.53;;
26014;SDS011;13793;55.388;37.844;2023-03-31T04:17:42;13.47;;;10.23;;
26014;SDS011;13793;55.388;37.844;2023-03-31T04:20:15;13.13;;;9.77;;
26014;SDS011;13793;55.388;37.844;2023-03-31T04:22:46;14.70;;;10.10;;
26014;SDS011;13793;55.388;37.844;2023-03-31T04:25:18;13.60;;;10.13;;
26014;SDS011;13793;55.388;37.844;2023-03-31T04:27:50;15.03;;;11.03;;
26014;SDS011;13793;55.388;37.844;2023-03-31T04:30:24;14.23;;;10.40;;
26014;SDS011;13793;55.388;37.844;2023-03-31T04:32:58;14.37;;;10.37;;
26014;SDS011;13793;55.388;37.844;2023-03-31T04:35:30;14.17;;;11.17;;
26014;SDS011;13793;55.388;37.844;2023-03-31T04:38:02;14.67;;;10.73;;
26014;SDS011;13793;55.388;37.844;2023-03-31T04:40:33;15.43;;;11.00;;
26014;SDS011;13793;55.388;37.844;2023-03-31T04:43:04;15.57;;;11.57;;
26014;SDS011;13793;55.388;37.844;2023-03-31T04:45:35;15.33;;;11.70;;
26014;SDS011;13793;55.388;37.844;2023-03-31T04:48:05;17.50;;;12.20;;
26014;SDS011;13793;55.388;37.844;2023-03-31T04:50:36;20.30;;;13.20;;
26014;SDS011;13793;55.388;37.844;2023-03-31T04:53:07;18.50;;;13.50;;
26014;SDS011;13793;55.388;37.844;2023-03-31T04:55:38;18.63;;;12.47;;
26014;SDS011;13793;55.388;37.844;2023-03-31T04:58:08;16.53;;;12.43;;
26014;SDS011;13793;55.388;37.844;2023-03-31T05:00:39;15.37;;;12.20;;
26014;SDS011;13793;55.388;37.844;2023-03-31T05:03:09;14.77;;;11.90;;
26014;SDS011;13793;55.388;37.844;2023-03-31T05:05:40;18.20;;;12.03;;
26014;SDS011;13793;55.388;37.844;2023-03-31T05:08:11;15.67;;;11.43;;
26014;SDS011;13793;55.388;37.844;2023-03-31T05:10:42;16.17;;;11.97;;
26014;SDS011;13793;55.388;37.844;2023-03-31T05:13:12;16.70;;;12.83;;
26014;SDS011;13793;55.388;37.844;2023-03-31T05:15:43;17.87;;;14.07;;
26014;SDS011;13793;55.388;37.844;2023-03-31T05:18:15;18.90;;;13.10;;
26014;SDS011;13793;55.388;37.844;2023-03-31T05:20:46;17.73;;;13.63;;
26014;SDS011;13793;55.388;37.844;2023-03-31T05:23:17;18.33;;;13.17;;
26014;SDS011;13793;55.388;37.844;2023-03-31T05:25:48;17.53;;;12.47;;
26014;SDS011;13793;55.388;37.844;2023-03-31T05:28:18;15.07;;;11.60;;
26014;SDS011;13793;55.388;37.844;2023-03-31T05:30:49;14.90;;;11.87;;
26014;SDS011;13793;55.388;37.844;2023-03-31T05:33:20;13.13;;;10.90;;
26014;SDS011;13793;55.388;37.844;2023-03-31T05:35:51;13.87;;;11.27;;
26014;SDS011;13793;55.388;37.844;2023-03-31T05:38:22;14.57;;;11.40;;
26014;SDS011;13793;55.388;37.844;2023-03-31T05:40:52;14.23;;;11.37;;
26014;SDS011;13793;55.388;37.844;2023-03-31T05:43:23;15.90;;;12.40;;
26014;SDS011;13793;55.388;37.844;2023-03-31T05:45:54;13.73;;;10.90;;
26014;SDS011;13793;55.388;37.844;2023-03-31T05:48:24;12.83;;;10.57;;
26014;SDS011;13793;55.388;37.844;2023-03-31T05:50:56;14.67;;;10.50;;
26014;SDS011;13793;55.388;37.844;2023-03-31T05:53:28;14.03;;;10.60;;
26014;SDS011;13793;55.388;37.844;2023-03-31T05:55:59;12.93;;;10.50;;
26014;SDS011;13793;55.388;37.844;2023-03-31T05:58:32;16.17;;;11.27;;
26014;SDS011;13793;55.388;37.844;2023-03-31T06:03:38;16.10;;;11.97;;
26014;SDS011;13793;55.388;37.844;2023-03-31T06:06:10;16.20;;;11.00;;
26014;SDS011;13793;55.388;37.844;2023-03-31T06:08:42;15.00;;;12.17;;
26014;SDS011;13793;55.388;37.844;2023-03-31T06:11:15;14.43;;;10.93;;
26014;SDS011;13793;55.388;37.844;2023-03-31T06:13:47;15.67;;;11.93;;
26014;SDS011;13793;55.388;37.844;2023-03-31T06:16:18;14.83;;;11.90;;
26014;SDS011;13793;55.388;37.844;2023-03-31T06:18:49;18.10;;;11.93;;
26014;SDS011;13793;55.388;37.844;2023-03-31T06:21:21;14.10;;;10.63;;
26014;SDS011;13793;55.388;37.844;2023-03-31T06:23:52;15.23;;;11.00;;
26014;SDS011;13793;55.388;37.844;2023-03-31T06:26:24;13.23;;;10.30;;
26014;SDS011;13793;55.388;37.844;2023-03-31T06:28:55;13.60;;;9.90;;
26014;SDS011;13793;55.388;37.844;2023-03-31T06:31:26;14.30;;;10.00;;
26014;SDS011;13793;55.388;37.844;2023-03-31T06:33:58;12.10;;;8.83;;
26014;SDS011;13793;55.388;37.844;2023-03-31T06:36:29;10.03;;;8.00;;
26014;SDS011;13793;55.388;37.844;2023-03-31T06:38:59;14.30;;;8.53;;
26014;SDS011;13793;55.388;37.844;2023-03-31T06:41:30;11.87;;;8.97;;
26014;SDS011;13793;55.388;37.844;2023-03-31T06:44:01;10.60;;;8.63;;
26014;SDS011;13793;55.388;37.844;2023-03-31T06:46:32;12.60;;;9.97;;
26014;SDS011;13793;55.388;37.844;2023-03-31T06:49:03;13.63;;;10.07;;
26014;SDS011;13793;55.388;37.844;2023-03-31T06:51:33;11.60;;;9.40;;
26014;SDS011;13793;55.388;37.844;2023-03-31T06:54:04;13.50;;;9.63;;
26014;SDS011;13793;55.388;37.844;2023-03-31T06:56:35;14.33;;;10.57;;
26014;SDS011;13793;55.388;37.844;2023-03-31T06:59:06;16.00;;;10.70;;
26014;SDS011;13793;55.388;37.844;2023-03-31T07:01:37;15.97;;;10.60;;
26014;SDS011;13793;55.388;37.844;2023-03-31T07:04:09;18.03;;;10.70;;
26014;SDS011;13793;55.388;37.844;2023-03-31T07:06:40;13.47;;;10.60;;
26014;SDS011;13793;55.388;37.844;2023-03-31T07:09:10;14.03;;;9.73;;
26014;SDS011;13793;55.388;37.844;2023-03-31T07:11:41;17.60;;;11.20;;
26014;SDS011;13793;55.388;37.844;2023-03-31T07:14:12;15.97;;;11.33;;
26014;SDS011;13793;55.388;37.844;2023-03-31T07:16:43;15.43;;;10.43;;
26014;SDS011;13793;55.388;37.844;2023-03-31T07:19:13;18.50;;;12.03;;
26014;SDS011;13793;55.388;37.844;2023-03-31T07:21:44;14.67;;;11.13;;
26014;SDS011;13793;55.388;37.844;2023-03-31T07:24:15;16.10;;;10.73;;
26014;SDS011;13793;55.388;37.844;2023-03-31T07:26:45;16.17;;;11.07;;
26014;SDS011;13793;55.388;37.844;2023-03-31T07:29:16;16.40;;;11.50;;
26014;SDS011;13793;55.388;37.844;2023-03-31T07:31:48;15.50;;;11.50;;
26014;SDS011;13793;55.388;37.844;2023-03-31T07:34:18;14.77;;;10.93;;
26014;SDS011;13793;55.388;37.844;2023-03-31T07:36:49;15.07;;;11.60;;
26014;SDS011;13793;55.388;37.844;2023-03-31T07:39:23;15.23;;;11.73;;
26014;SDS011;13793;55.388;37.844;2023-03-31T07:41:54;16.03;;;11.83;;
26014;SDS011;13793;55.388;37.844;2023-03-31T07:44:25;16.07;;;11.70;;
26014;SDS011;13793;55.388;37.844;2023-03-31T07:46:56;17.50;;;11.67;;
26014;SDS011;13793;55.388;37.844;2023-03-31T07:49:28;18.37;;;12.10;;
26014;SDS011;13793;55.388;37.844;2023-03-31T07:51:59;18.13;;;12.67;;
26014;SDS011;13793;55.388;37.844;2023-03-31T07:54:30;20.33;;;13.13;;
26014;SDS011;13793;55.388;37.844;2023-03-31T07:57:01;23.23;;;12.00;;
26014;SDS011;13793;55.388;37.844;2023-03-31T07:59:33;18.20;;;12.47;;
26014;SDS011;13793;55.388;37.844;2023-03-31T08:02:04;16.10;;;12.40;;
26014;SDS011;13793;55.388;37.844;2023-03-31T08:04:35;16.90;;;11.23;;
26014;SDS011;13793;55.388;37.844;2023-03-31T08:07:06;14.30;;;11.37;;
26014;SDS011;13793;55.388;37.844;2023-03-31T08:09:38;14.63;;;11.33;;
26014;SDS011;13793;55.388;37.844;2023-03-31T08:12:09;20.43;;;12.90;;
26014;SDS011;13793;55.388;37.844;2023-03-31T08:14:39;18.73;;;13.13;;
26014;SDS011;13793;55.388;37.844;2023-03-31T08:17:10;17.93;;;13.10;;
26014;SDS011;13793;55.388;37.844;2023-03-31T08:19:41;17.90;;;13.50;;
26014;SDS011;13793;55.388;37.844;2023-03-31T08:22:12;20.93;;;14.63;;
26014;SDS011;13793;55.388;37.844;2023-03-31T08:24:43;30.83;;;16.17;;
26014;SDS011;13793;55.388;37.844;2023-03-31T08:27:13;24.07;;;15.07;;
26014;SDS011;13793;55.388;37.844;2023-03-31T08:29:44;22.80;;;15.47;;
26014;SDS011;13793;55.388;37.844;2023-03-31T08:32:15;20.50;;;14.50;;
26014;SDS011;13793;55.388;37.844;2023-03-31T08:34:46;21.93;;;14.70;;
26014;SDS011;13793;55.388;37.844;2023-03-31T08:37:17;22.90;;;15.13;;
26014;SDS011;13793;55.388;37.844;2023-03-31T08:39:48;23.87;;;15.17;;
26014;SDS011;13793;55.388;37.844;2023-03-31T08:42:21;22.20;;;15.20;;
26014;SDS011;13793;55.388;37.844;2023-03-31T08:45:03;22.40;;;15.27;;
26014;SDS011;13793;55.388;37.844;2023-03-31T08:47:35;22.32;;;15.23;;
26014;SDS011;13793;55.388;37.844;2023-03-31T08:50:10;23.10;;;15.13;;
26014;SDS011;13793;55.388;37.844;2023-03-31T08:52:48;23.47;;;15.85;;
26014;SDS011;13793;55.388;37.844;2023-03-31T08:55:39;23.37;;;15.87;;
26014;SDS011;13793;55.388;37.844;2023-03-31T09:01:48;23.17;;;16.40;;
26014;SDS011;13793;55.388;37.844;2023-03-31T09:12:19;23.47;;;15.10;;
26014;SDS011;13793;55.388;37.844;2023-03-31T09:14:56;23.93;;;15.77;;
26014;SDS011;13793;55.388;37.844;2023-03-31T09:17:43;22.17;;;15.67;;
26014;SDS011;13793;55.388;37.844;2023-03-31T09:20:17;24.43;;;15.70;;
26014;SDS011;13793;55.388;37.844;2023-03-31T09:22:50;23.40;;;14.50;;
26014;SDS011;13793;55.388;37.844;2023-03-31T09:25:30;24.17;;;14.30;;
26014;SDS011;13793;55.388;37.844;2023-03-31T09:27:56;24.60;;;15.30;;
26014;SDS011;13793;55.388;37.844;2023-03-31T09:30:32;24.80;;;14.97;;
26014;SDS011;13793;55.388;37.844;2023-03-31T09:33:10;21.00;;;14.67;;
26014;SDS011;13793;55.388;37.844;2023-03-31T09:35:48;26.03;;;15.50;;
26014;SDS011;13793;55.388;37.844;2023-03-31T09:38:18;25.53;;;15.37;;
26014;SDS011;13793;55.388;37.844;2023-03-31T09:40:49;20.83;;;14.77;;
26014;SDS011;13793;55.388;37.844;2023-03-31T09:43:23;24.57;;;14.70;;
26014;SDS011;13793;55.388;37.844;2023-03-31T09:45:55;28.60;;;14.93;;
26014;SDS011;13793;55.388;37.844;2023-03-31T09:48:28;23.67;;;15.23;;
26014;SDS011;13793;55.388;37.844;2023-03-31T09:51:04;27.07;;;15.97;;
26014;SDS011;13793;55.388;37.844;2023-03-31T09:53:46;22.53;;;14.80;;
26014;SDS011;13793;55.388;37.844;2023-03-31T09:56:43;25.10;;;15.80;;
26014;SDS011;13793;55.388;37.844;2023-03-31T09:59:20;23.47;;;15.30;;
26014;SDS011;13793;55.388;37.844;2023-03-31T10:01:51;22.10;;;15.23;;
26014;SDS011;13793;55.388;37.844;2023-03-31T10:04:25;23.60;;;14.70;;
26014;SDS011;13793;55.388;37.844;2023-03-31T10:06:57;24.93;;;16.00;;
26014;SDS011;13793;55.388;37.844;2023-03-31T10:09:30;24.30;;;16.23;;
26014;SDS011;13793;55.388;37.844;2023-03-31T10:12:06;23.27;;;15.27;;
26014;SDS011;13793;55.388;37.844;2023-03-31T10:14:43;26.87;;;17.27;;
26014;SDS011;13793;55.388;37.844;2023-03-31T10:17:15;25.00;;;15.47;;
26014;SDS011;13793;55.388;37.844;2023-03-31T10:19:47;25.47;;;15.57;;
26014;SDS011;13793;55.388;37.844;2023-03-31T10:24:53;25.20;;;15.50;;
26014;SDS011;13793;55.388;37.844;2023-03-31T10:27:25;25.33;;;15.23;;
26014;SDS011;13793;55.388;37.844;2023-03-31T10:29:58;24.30;;;16.40;;
26014;SDS011;13793;55.388;37.844;2023-03-31T10:37:54;25.40;;;15.93;;
26014;SDS011;13793;55.388;37.844;2023-03-31T10:40:27;25.57;;;16.93;;
26014;SDS011;13793;55.388;37.844;2023-03-31T10:43:04;29.00;;;17.13;;
26014;SDS011;13793;55.388;37.844;2023-03-31T10:45:37;28.93;;;17.03;;
26014;SDS011;13793;55.388;37.844;2023-03-31T10:50:57;27.93;;;17.63;;
26014;SDS011;13793;55.388;37.844;2023-03-31T10:54:18;27.90;;;17.43;;
26014;SDS011;13793;55.388;37.844;2023-03-31T10:56:41;29.70;;;18.07;;
26014;SDS011;13793;55.388;37.844;2023-03-31T11:08:15;28.90;;;18.13;;
26014;SDS011;13793;55.388;37.844;2023-03-31T11:10:54;30.63;;;19.93;;
26014;SDS011;13793;55.388;37.844;2023-03-31T11:14:07;30.87;;;18.00;;
26014;SDS011;13793;55.388;37.844;2023-03-31T11:16:31;29.27;;;18.40;;
26014;SDS011;13793;55.388;37.844;2023-03-31T11:22:28;28.97;;;17.87;;
26014;SDS011;13793;55.388;37.844;2023-03-31T11:24:51;30.87;;;18.63;;
26014;SDS011;13793;55.388;37.844;2023-03-31T11:27:36;25.13;;;17.47;;
26014;SDS011;13793;55.388;37.844;2023-03-31T11:30:15;29.30;;;19.00;;
26014;SDS011;13793;55.388;37.844;2023-03-31T11:32:48;31.37;;;19.10;;
26014;SDS011;13793;55.388;37.844;2023-03-31T11:41:01;31.13;;;18.23;;
26014;SDS011;13793;55.388;37.844;2023-03-31T11:43:33;30.17;;;18.57;;
26014;SDS011;13793;55.388;37.844;2023-03-31T11:48:56;31.13;;;18.70;;
26014;SDS011;13793;55.388;37.844;2023-03-31T11:54:02;30.30;;;19.47;;
26014;SDS011;13793;55.388;37.844;2023-03-31T11:56:35;29.87;;;19.00;;
26014;SDS011;13793;55.388;37.844;2023-03-31T11:59:13;29.77;;;18.83;;
26014;SDS011;13793;55.388;37.844;2023-03-31T12:04:47;28.97;;;18.77;;
26014;SDS011;13793;55.388;37.844;2023-03-31T12:07:38;29.77;;;18.97;;
26014;SDS011;13793;55.388;37.844;2023-03-31T12:10:33;28.87;;;18.70;;
26014;SDS011;13793;55.388;37.844;2023-03-31T12:16:05;30.00;;;19.70;;
26014;SDS011;13793;55.388;37.844;2023-03-31T12:18:46;31.57;;;20.27;;
26014;SDS011;13793;55.388;37.844;2023-03-31T12:21:26;29.50;;;19.33;;
26014;SDS011;13793;55.388;37.844;2023-03-31T12:23:59;30.33;;;19.47;;
26014;SDS011;13793;55.388;37.844;2023-03-31T12:26:34;30.30;;;19.80;;
26014;SDS011;13793;55.388;37.844;2023-03-31T12:29:19;29.27;;;19.60;;
26014;SDS011;13793;55.388;37.844;2023-03-31T12:31:48;30.57;;;20.00;;
26014;SDS011;13793;55.388;37.844;2023-03-31T12:34:21;29.57;;;19.57;;
26014;SDS011;13793;55.388;37.844;2023-03-31T12:37:03;29.30;;;19.90;;
26014;SDS011;13793;55.388;37.844;2023-03-31T12:45:24;24.85;;;15.18;;
26014;SDS011;13793;55.388;37.844;2023-03-31T12:59:36;31.93;;;19.57;;
26014;SDS011;13793;55.388;37.844;2023-03-31T13:04:45;20.62;;;14.13;;
26014;SDS011;13793;55.388;37.844;2023-03-31T13:10:23;29.03;;;20.27;;
26014;SDS011;13793;55.388;37.844;2023-03-31T13:12:57;29.03;;;18.53;;
26014;SDS011;13793;55.388;37.844;2023-03-31T13:15:37;29.03;;;18.27;;
26014;SDS011;13793;55.388;37.844;2023-03-31T13:18:13;27.50;;;17.70;;
26014;SDS011;13793;55.388;37.844;2023-03-31T13:20:41;27.97;;;18.57;;
26014;SDS011;13793;55.388;37.844;2023-03-31T13:23:17;27.80;;;18.10;;
26014;SDS011;13793;55.388;37.844;2023-03-31T13:25:54;29.03;;;19.37;;
26014;SDS011;13793;55.388;37.844;2023-03-31T13:28:26;32.00;;;20.63;;
26014;SDS011;13793;55.388;37.844;2023-03-31T13:31:02;32.00;;;20.30;;
26014;SDS011;13793;55.388;37.844;2023-03-31T13:39:20;31.40;;;20.60;;
26014;SDS011;13793;55.388;37.844;2023-03-31T14:00:00;28.00;;;16.87;;
26014;SDS011;13793;55.388;37.844;2023-03-31T14:05:21;27.93;;;17.67;;
26014;SDS011;13793;55.388;37.844;2023-03-31T14:08:17;26.40;;;16.53;;
26014;SDS011;13793;55.388;37.844;2023-03-31T14:10:42;25.07;;;15.37;;
26014;SDS011;13793;55.388;37.844;2023-03-31T14:13:23;25.47;;;15.33;;
26014;SDS011;13793;55.388;37.844;2023-03-31T14:15:57;26.93;;;16.00;;
26014;SDS011;13793;55.388;37.844;2023-03-31T14:18:29;28.90;;;16.27;;
26014;SDS011;13793;55.388;37.844;2023-03-31T14:23:53;29.43;;;16.87;;
26014;SDS011;13793;55.388;37.844;2023-03-31T14:32:31;29.47;;;15.90;;
26014;SDS011;13793;55.388;37.844;2023-03-31T14:38:12;26.67;;;16.33;;
26014;SDS011;13793;55.388;37.844;2023-03-31T14:40:49;25.97;;;15.53;;
26014;SDS011;13793;55.388;37.844;2023-03-31T14:43:24;23.37;;;14.80;;
26014;SDS011;13793;55.388;37.844;2023-03-31T14:45:57;25.43;;;16.17;;
26014;SDS011;13793;55.388;37.844;2023-03-31T14:48:31;24.43;;;15.17;;
26014;SDS011;13793;55.388;37.844;2023-03-31T14:51:07;26.03;;;15.77;;
26014;SDS011;13793;55.388;37.844;2023-03-31T14:53:36;28.33;;;16.23;;
26014;SDS011;13793;55.388;37.844;2023-03-31T14:56:08;26.67;;;14.97;;
26014;SDS011;13793;55.388;37.844;2023-03-31T14:58:42;25.37;;;15.87;;
26014;SDS011;13793;55.388;37.844;2023-03-31T15:01:17;30.80;;;16.23;;
26014;SDS011;13793;55.388;37.844;2023-03-31T15:03:51;30.63;;;18.00;;
26014;SDS011;13793;55.388;37.844;2023-03-31T15:06:25;25.80;;;15.93;;
26014;SDS011;13793;55.388;37.844;2023-03-31T15:08:56;27.67;;;17.00;;
26014;SDS011;13793;55.388;37.844;2023-03-31T15:11:29;26.53;;;16.83;;
26014;SDS011;13793;55.388;37.844;2023-03-31T15:14:02;27.37;;;16.87;;
26014;SDS011;13793;55.388;37.844;2023-03-31T15:19:15;32.87;;;19.07;;
26014;SDS011;13793;55.388;37.844;2023-03-31T15:24:29;30.07;;;18.23;;
26014;SDS011;13793;55.388;37.844;2023-03-31T15:27:04;32.03;;;18.80;;
26014;SDS011;13793;55.388;37.844;2023-03-31T15:32:13;33.80;;;18.93;;
26014;SDS011;13793;55.388;37.844;2023-03-31T15:34:46;36.33;;;19.20;;
26014;SDS011;13793;55.388;37.844;2023-03-31T15:37:25;32.00;;;18.47;;
26014;SDS011;13793;55.388;37.844;2023-03-31T15:40:00;33.87;;;18.13;;
26014;SDS011;13793;55.388;37.844;2023-03-31T15:42:38;33.20;;;19.13;;
26014;SDS011;13793;55.388;37.844;2023-03-31T15:47:55;31.93;;;19.73;;
26014;SDS011;13793;55.388;37.844;2023-03-31T15:50:26;31.37;;;18.93;;
26014;SDS011;13793;55.388;37.844;2023-03-31T15:52:58;29.93;;;17.73;;
26014;SDS011;13793;55.388;37.844;2023-03-31T15:55:49;34.70;;;19.53;;
26014;SDS011;13793;55.388;37.844;2023-03-31T15:58:10;32.57;;;19.60;;
26014;SDS011;13793;55.388;37.844;2023-03-31T16:00:50;34.17;;;19.83;;
26014;SDS011;13793;55.388;37.844;2023-03-31T16:03:23;28.63;;;18.57;;
26014;SDS011;13793;55.388;37.844;2023-03-31T16:05:59;29.50;;;19.03;;
26014;SDS011;13793;55.388;37.844;2023-03-31T16:11:12;36.13;;;21.30;;
26014;SDS011;13793;55.388;37.844;2023-03-31T16:13:53;39.17;;;25.67;;
26014;SDS011;13793;55.388;37.844;2023-03-31T16:16:21;43.57;;;29.10;;
26014;SDS011;13793;55.388;37.844;2023-03-31T16:19:02;43.33;;;25.27;;
26014;SDS011;13793;55.388;37.844;2023-03-31T16:21:44;50.80;;;31.70;;
26014;SDS011;13793;55.388;37.844;2023-03-31T16:24:19;48.30;;;31.33;;
26014;SDS011;13793;55.388;37.844;2023-03-31T16:26:50;44.10;;;28.87;;
26014;SDS011;13793;55.388;37.844;2023-03-31T16:29:21;38.00;;;25.63;;
26014;SDS011;13793;55.388;37.844;2023-03-31T16:32:04;36.50;;;22.93;;
26014;SDS011;13793;55.388;37.844;2023-03-31T16:37:26;33.97;;;19.60;;
26014;SDS011;13793;55.388;37.844;2023-03-31T16:39:57;37.80;;;21.30;;
26014;SDS011;13793;55.388;37.844;2023-03-31T16:42:28;37.20;;;21.07;;
26014;SDS011;13793;55.388;37.844;2023-03-31T16:44:58;34.93;;;20.37;;
26014;SDS011;13793;55.388;37.844;2023-03-31T16:47:29;33.20;;;18.80;;
26014;SDS011;13793;55.388;37.844;2023-03-31T16:50:00;38.60;;;20.03;;
26014;SDS011;13793;55.388;37.844;2023-03-31T16:52:32;35.50;;;20.03;;
26014;SDS011;13793;55.388;37.844;2023-03-31T16:55:04;36.20;;;19.80;;
26014;SDS011;13793;55.388;37.844;2023-03-31T16:57:35;34.87;;;20.43;;
26014;SDS011;13793;55.388;37.844;2023-03-31T17:00:06;39.03;;;23.40;;
26014;SDS011;13793;55.388;37.844;2023-03-31T17:02:38;46.43;;;30.13;;
26014;SDS011;13793;55.388;37.844;2023-03-31T17:05:09;39.63;;;26.00;;
26014;SDS011;13793;55.388;37.844;2023-03-31T17:07:40;39.73;;;23.97;;
26014;SDS011;13793;55.388;37.844;2023-03-31T17:10:10;41.27;;;25.93;;
26014;SDS011;13793;55.388;37.844;2023-03-31T17:12:41;46.03;;;28.03;;
26014;SDS011;13793;55.388;37.844;2023-03-31T17:15:12;41.73;;;27.00;;
26014;SDS011;13793;55.388;37.844;2023-03-31T17:17:43;39.23;;;22.83;;
26014;SDS011;13793;55.388;37.844;2023-03-31T17:20:15;37.90;;;21.67;;
26014;SDS011;13793;55.388;37.844;2023-03-31T17:22:46;40.70;;;21.90;;
26014;SDS011;13793;55.388;37.844;2023-03-31T17:25:17;34.77;;;19.87;;
26014;SDS011;13793;55.388;37.844;2023-03-31T17:27:47;36.80;;;20.77;;
26014;SDS011;13793;55.388;37.844;2023-03-31T17:30:18;37.70;;;20.63;;
26014;SDS011;13793;55.388;37.844;2023-03-31T17:32:49;36.33;;;19.20;;
26014;SDS011;13793;55.388;37.844;2023-03-31T17:35:20;37.50;;;20.37;;
26014;SDS011;13793;55.388;37.844;2023-03-31T17:37:51;37.00;;;20.43;;